createdAt,value
2023-03-05T00:04:17.762Z,11.43
2023-03-05T00:09:19.737Z,11.07
2023-03-05T00:14:22.873Z,9.57
2023-03-05T00:19:24.906Z,12.38
2023-03-05T00:24:27.034Z,11.80
2023-03-05T00:29:31.678Z,13.30
2023-03-05T00:34:33.953Z,14.23
2023-03-05T00:39:36.050Z,13.75
2023-03-05T00:44:39.729Z,16.08
2023-03-05T00:49:41.848Z,13.45
2023-03-05T00:54:44.035Z,16.17
2023-03-05T00:59:46.022Z,12.25
2023-03-05T01:04:48.106Z,14.63
2023-03-05T01:09:50.662Z,12.93
2023-03-05T01:14:52.826Z,13.73
2023-03-05T01:19:55.208Z,16.00
2023-03-05T01:24:57.451Z,10.43
2023-03-05T01:29:59.594Z,13.90
2023-03-05T01:35:04.085Z,12.32
2023-03-05T01:40:06.897Z,14.50
2023-03-05T01:45:13.524Z,13.18
2023-03-05T01:50:22.752Z,12.18
2023-03-05T01:55:27.468Z,11.82
2023-03-05T02:00:31.852Z,13.57
2023-03-05T02:05:36.941Z,12.45
2023-03-05T02:10:47.966Z,10.95
2023-03-05T02:15:52.415Z,13.13
2023-03-05T02:20:57.160Z,18.10
2023-03-05T02:25:59.806Z,9.30
2023-03-05T02:31:01.954Z,15.13
2023-03-05T02:36:04.428Z,16.90
2023-03-05T02:41:06.658Z,9.82
2023-03-05T02:46:10.008Z,11.02
2023-03-05T02:51:12.400Z,15.40
2023-03-05T02:56:14.509Z,13.55
2023-03-05T03:01:16.726Z,15.75
2023-03-05T03:06:18.863Z,18.70
2023-03-05T03:11:21.377Z,18.80
2023-03-05T03:16:23.455Z,14.07
2023-03-05T03:21:26.848Z,19.27
2023-03-05T03:26:28.918Z,18.38
2023-03-05T03:31:31.044Z,14.95
2023-03-05T03:36:34.855Z,14.20
2023-03-05T03:41:41.121Z,16.13
2023-03-05T03:46:48.294Z,14.77
2023-03-05T03:51:52.147Z,17.08
2023-03-05T03:56:54.497Z,17.50
2023-03-05T04:01:56.756Z,16.90
2023-03-05T04:06:58.932Z,16.85
2023-03-05T04:12:01.257Z,16.30
2023-03-05T04:17:03.411Z,17.83
2023-03-05T04:22:06.944Z,15.80
2023-03-05T04:27:09.852Z,17.58
2023-03-05T04:32:11.992Z,17.55
2023-03-05T04:37:14.125Z,17.92
2023-03-05T04:42:16.266Z,16.02
2023-03-05T04:47:19.144Z,18.17
2023-03-05T04:52:21.400Z,15.52
2023-03-05T04:57:24.144Z,18.92
2023-03-05T05:02:26.539Z,16.17
2023-03-05T05:07:29.854Z,15.35
2023-03-05T05:12:31.878Z,13.68
2023-03-05T05:17:34.277Z,10.35
2023-03-05T05:22:36.968Z,16.58
2023-03-05T05:27:39.910Z,13.65
2023-03-05T05:32:41.979Z,13.23
2023-03-05T05:37:44.246Z,15.82
2023-03-05T05:42:46.426Z,10.52
2023-03-05T05:47:48.460Z,12.80
2023-03-05T05:52:53.326Z,8.82
2023-03-05T05:57:55.541Z,7.18
2023-03-05T06:02:57.770Z,8.88
2023-03-05T06:08:00.298Z,10.23
2023-03-05T06:13:02.596Z,10.48
2023-03-05T06:18:04.838Z,7.63
2023-03-05T06:23:07.220Z,11.45
2023-03-05T06:28:09.286Z,10.60
2023-03-05T06:33:11.857Z,11.38
2023-03-05T06:38:13.926Z,13.73
2023-03-05T06:43:16.048Z,10.00
2023-03-05T06:48:18.106Z,7.55
2023-03-05T06:53:20.150Z,8.82
2023-03-05T06:58:22.947Z,10.25
2023-03-05T07:03:24.953Z,11.60
2023-03-05T07:08:27.104Z,6.80
2023-03-05T07:13:29.701Z,5.20
2023-03-05T07:18:31.786Z,9.52
2023-03-05T07:23:35.220Z,6.30
2023-03-05T07:28:37.466Z,6.22
2023-03-05T07:33:39.639Z,6.50
2023-03-05T07:38:42.194Z,5.55
2023-03-05T07:43:45.825Z,7.35
2023-03-05T07:48:47.994Z,7.60
2023-03-05T07:53:51.599Z,7.90
2023-03-05T07:58:53.610Z,6.13
2023-03-05T08:03:55.987Z,6.25
2023-03-05T08:08:58.766Z,7.45
2023-03-05T08:14:01.018Z,4.88
2023-03-05T08:19:03.114Z,6.22
2023-03-05T08:24:08.461Z,7.55
2023-03-05T08:29:10.806Z,7.20
2023-03-05T08:34:13.392Z,6.53
2023-03-05T08:39:15.834Z,7.15
2023-03-05T08:44:17.911Z,7.68
2023-03-05T08:49:19.986Z,5.25
2023-03-05T08:54:22.085Z,7.30
2023-03-05T08:59:24.170Z,9.25
2023-03-05T09:04:26.302Z,6.88
2023-03-05T09:09:29.941Z,7.60
2023-03-05T09:14:32.104Z,6.32
2023-03-05T09:19:34.275Z,6.22
2023-03-05T09:24:36.429Z,7.97
2023-03-05T09:29:38.504Z,9.82
2023-03-05T09:34:40.602Z,7.18
2023-03-05T09:39:42.860Z,5.43
2023-03-05T09:45:12.429Z,6.88
2023-03-05T09:50:35.742Z,6.47
2023-03-05T09:55:42.124Z,2.88
2023-03-05T10:00:47.154Z,3.47
2023-03-05T10:05:58.234Z,2.38
2023-03-05T10:16:03.969Z,5.53
2023-03-05T10:21:13.408Z,4.00
2023-03-05T10:26:39.283Z,4.20
2023-03-05T10:32:09.358Z,3.97
2023-03-05T10:37:26.621Z,7.90
2023-03-05T10:42:42.784Z,4.57
2023-03-05T10:47:54.037Z,3.83
2023-03-05T10:53:10.501Z,4.15
2023-03-05T10:58:14.833Z,3.88
2023-03-05T11:03:16.857Z,4.55
2023-03-05T11:08:36.263Z,3.97
2023-03-05T11:13:56.521Z,5.20
2023-03-05T11:19:20.788Z,3.25
2023-03-05T11:24:22.868Z,3.88
2023-03-05T11:29:33.691Z,4.55
2023-03-05T11:34:35.880Z,4.40
2023-03-05T11:39:40.148Z,2.53
2023-03-05T11:44:48.490Z,5.85
2023-03-05T11:49:56.184Z,3.83
2023-03-05T11:55:07.124Z,3.90
2023-03-05T12:00:16.250Z,6.20
2023-03-05T12:05:18.438Z,6.07
2023-03-05T12:10:23.690Z,3.95
2023-03-05T12:16:04.135Z,2.63
2023-03-05T12:21:14.115Z,5.70
2023-03-05T12:26:16.306Z,3.00
2023-03-05T12:31:38.273Z,1.80
2023-03-05T12:36:40.891Z,2.95
2023-03-05T12:41:43.149Z,2.90
2023-03-05T12:47:06.059Z,2.25
2023-03-05T12:52:22.948Z,3.10
2023-03-05T12:57:29.499Z,3.70
2023-03-05T13:02:44.139Z,4.70
2023-03-05T13:07:46.324Z,5.80
2023-03-05T13:12:54.579Z,2.83
2023-03-05T13:18:03.322Z,3.47
2023-03-05T13:23:20.580Z,2.25
2023-03-05T13:28:22.772Z,2.83
2023-03-05T13:33:33.666Z,3.50
2023-03-05T13:38:40.055Z,5.90
2023-03-05T13:43:44.341Z,4.82
2023-03-05T13:48:46.617Z,2.72
2023-03-05T13:53:50.014Z,3.72
2023-03-05T13:58:57.477Z,3.67
2023-03-05T14:04:18.072Z,4.07
2023-03-05T14:09:26.432Z,4.90
2023-03-05T14:14:30.430Z,4.97
2023-03-05T14:19:39.229Z,5.60
2023-03-05T14:24:52.637Z,6.05
2023-03-05T14:29:54.983Z,5.60
2023-03-05T14:34:59.359Z,4.35
2023-03-05T14:40:07.877Z,4.43
2023-03-05T14:45:14.445Z,6.57
2023-03-05T14:50:44.053Z,6.28
2023-03-05T14:55:50.232Z,8.32
2023-03-05T15:00:53.846Z,7.95
2023-03-05T15:05:58.467Z,10.10
2023-03-05T15:11:01.123Z,7.15
2023-03-05T15:16:04.920Z,10.38
2023-03-05T15:21:07.130Z,7.35
2023-03-05T15:26:09.851Z,5.18
2023-03-05T15:31:12.278Z,5.28
2023-03-05T15:36:14.299Z,6.20
2023-03-05T15:41:17.618Z,6.50
2023-03-05T15:46:19.788Z,5.38
2023-03-05T15:51:21.849Z,6.93
2023-03-05T15:56:23.915Z,6.80
2023-03-05T16:01:26.051Z,5.03
2023-03-05T16:06:29.046Z,6.15
2023-03-05T16:11:33.480Z,4.22
2023-03-05T16:16:36.524Z,4.65
2023-03-05T16:21:38.633Z,4.53
2023-03-05T16:26:41.793Z,4.35
2023-03-05T16:31:45.298Z,4.55
2023-03-05T16:36:52.735Z,5.60
2023-03-05T16:41:54.852Z,5.10
2023-03-05T16:46:57.261Z,5.55
2023-03-05T16:52:03.474Z,4.15
2023-03-05T16:57:09.198Z,6.35
2023-03-05T17:02:13.141Z,8.13
2023-03-05T17:07:15.489Z,4.50
2023-03-05T17:12:17.536Z,4.22
2023-03-05T17:17:20.043Z,8.98
2023-03-05T17:22:22.099Z,5.78
2023-03-05T17:27:24.286Z,5.60
2023-03-05T17:32:26.740Z,10.40
2023-03-05T17:37:28.876Z,17.73
2023-03-05T17:42:31.006Z,7.78
2023-03-05T17:47:34.178Z,9.98
2023-03-05T17:52:41.125Z,7.10
2023-03-05T17:57:44.196Z,7.55
2023-03-05T18:02:46.768Z,12.40
2023-03-05T18:07:49.034Z,17.35
2023-03-05T18:12:52.325Z,6.47
2023-03-05T18:17:55.030Z,5.88
2023-03-05T18:22:58.472Z,7.43
2023-03-05T18:28:02.907Z,12.32
2023-03-05T18:33:05.125Z,9.65
2023-03-05T18:38:07.149Z,10.13
2023-03-05T18:43:09.694Z,8.38
2023-03-05T18:48:11.707Z,5.43
2023-03-05T18:53:14.297Z,5.03
2023-03-05T18:58:17.466Z,5.25
2023-03-05T19:03:21.790Z,4.57
2023-03-05T19:08:24.924Z,5.57
2023-03-05T19:13:39.532Z,5.05
2023-03-05T19:18:57.147Z,6.78
2023-03-05T19:23:59.703Z,5.22
2023-03-05T19:29:02.262Z,14.88
2023-03-05T19:34:05.006Z,7.60
2023-03-05T19:39:07.832Z,8.25
2023-03-05T19:44:10.244Z,6.38
2023-03-05T19:49:12.459Z,6.70
2023-03-05T19:54:16.861Z,9.65
2023-03-05T19:59:21.037Z,12.60
2023-03-05T20:04:24.391Z,7.30
2023-03-05T20:09:26.551Z,6.70
2023-03-05T20:14:28.552Z,10.30
2023-03-05T20:19:30.628Z,6.47
2023-03-05T20:24:32.682Z,12.23
2023-03-05T20:29:34.837Z,8.10
2023-03-05T20:34:37.060Z,6.50
2023-03-05T20:39:39.206Z,7.50
2023-03-05T20:44:42.428Z,6.40
2023-03-05T20:49:44.585Z,5.15
2023-03-05T20:54:47.660Z,7.13
2023-03-05T20:59:49.885Z,6.13
2023-03-05T21:04:52.088Z,8.25
2023-03-05T21:09:54.245Z,6.13
2023-03-05T21:14:56.278Z,7.82
2023-03-05T21:19:58.470Z,6.60
2023-03-05T21:25:13.382Z,7.63
2023-03-05T21:30:17.166Z,6.43
2023-03-05T21:35:21.720Z,5.97
2023-03-05T21:40:23.840Z,5.93
2023-03-05T21:45:27.360Z,7.05
2023-03-05T21:50:29.478Z,10.77
2023-03-05T21:55:43.137Z,8.05
2023-03-05T22:00:45.307Z,8.07
2023-03-05T22:05:48.017Z,7.10
2023-03-05T22:10:50.299Z,7.93
2023-03-05T22:15:57.552Z,6.82
2023-03-05T22:20:59.874Z,8.18
2023-03-05T22:26:05.607Z,5.18
2023-03-05T22:31:08.105Z,6.45
2023-03-05T22:36:11.106Z,5.05
2023-03-05T22:41:16.139Z,7.40
2023-03-05T22:46:24.048Z,6.78
2023-03-05T22:51:26.380Z,5.80
2023-03-05T22:56:28.384Z,5.97
2023-03-05T23:01:30.506Z,5.88
2023-03-05T23:06:32.490Z,7.35
2023-03-05T23:11:34.503Z,7.00
2023-03-05T23:16:36.719Z,6.68
2023-03-05T23:21:38.952Z,6.13
2023-03-05T23:26:41.416Z,6.75
2023-03-05T23:31:43.444Z,7.95
2023-03-05T23:36:45.562Z,7.40
2023-03-05T23:41:47.705Z,8.70
2023-03-05T23:46:49.760Z,7.45
2023-03-05T23:51:51.789Z,6.28
2023-03-05T23:56:53.824Z,8.27
